This is the latest recevied weather packets stored in our database for station/object kj4yre. If no packets are shown the sender has not sent any weather packets the latest 10 day(s).
| Time | Temp. | Humidity | Pressure | Rain* | Wind** | Luminosity | Snow |
|---|---|---|---|---|---|---|---|
| 1777824607 | 15.56° C | 41% | 1019.1 hPa | 0 mm | - | - | - |
| 1777818005 | 12.78° C | 44% | 1019.2 hPa | 0 mm | - | - | - |
| 1777814105 | 10.56° C | 54% | 1018.9 hPa | 0 mm | - | - | - |
| 1777812905 | 10.56° C | 57% | 1018.9 hPa | 0 mm | - | - | - |
| 1777810808 | 8.89° C | 62% | 1018.8 hPa | 0 mm | - | - | - |
| 1777806905 | 7.22° C | 69% | 1018.2 hPa | 0 mm | - | - | - |
| 1777803605 | 7.78° C | 67% | 1016.9 hPa | 0 mm | - | - | - |
| 1777801506 | 8.33° C | 65% | 1016.2 hPa | 0 mm | - | - | - |
| 1777800608 | 8.33° C | 65% | 1016.1 hPa | 0 mm | - | - | - |
| 1777798807 | 8.89° C | 64% | 1015.9 hPa | 0 mm | - | - | - |
| 1777797007 | 9.44° C | 64% | 1015.5 hPa | 0 mm | - | - | - |
| 1777796705 | 9.44° C | 62% | 1015.4 hPa | 0 mm | - | - | - |
| 1777795505 | 9.44° C | 66% | 1015.2 hPa | 0 mm | - | - | - |
| 1777790107 | 10° C | 74% | 1014.4 hPa | 0 mm | - | - | - |
| 1777789206 | 9.44° C | 78% | 1014.4 hPa | 0 mm | - | - | - |
| 1777788307 | 9.44° C | 82% | 1014.5 hPa | 0 mm | - | - | - |
| 1777785007 | 8.33° C | 97% | 1014.1 hPa | 0 mm | - | - | - |
| 1777784405 | 8.33° C | 96% | 1014.1 hPa | 0 mm | - | - | - |
| 1777780812 | 7.78° C | 98% | 1014 hPa | 0 mm | - | - | - |
| 1777780507 | 7.22° C | 98% | 1013.9 hPa | 0 mm | - | - | - |
| 1777779607 | 7.22° C | 98% | 1013.9 hPa | 0 mm | - | - | - |
| 1777777205 | 7.22° C | 96% | 1014.1 hPa | 0 mm | - | - | - |
| 1777776607 | 7.78° C | 97% | 1014.1 hPa | 0 mm | - | - | - |
| 1777776006 | 7.78° C | 95% | 1014 hPa | 0 mm | - | - | - |
| 1777774806 | 8.33° C | 91% | 1014.2 hPa | 0 mm | - | - | - |
* Rain latest hour (hover to see other rain measurements)
** Current wind speed in m/s (hover to see current wind gust speed)